HSA weather

Stennis International Airport
Bay St Louis, Mississippi, United States

Public forecast

Using degrees Fahrenheit for public forecast. Weather courtesy of forecast.io.

Current aviation weather report (METAR) for Stennis International Airport

Retrieved 2020/08/05 15:50 UTC (50 minutes ago):

KHSA 051550Z VRB04KT 7SM FEW040 31/21 A3001

Aviation forecast (TAF) for Stennis International Airport

Forecast is more than 12 hours old.

Retrieved 2012/07/18 18:57 UTC (8 years ago):

TAF COR KHSA 181754Z 1818/1918 18005KT P6SM VCSH SCT040 BKN200 TEMPO 1819/1823 VRB15G25KT 3SM TSRA BKN030CB OVC060 FM190200 VRB03KT P6SM SCT040 BKN200 FM191500 31005KT P6SM SCT025 AMD NOT SKED AFT 190000